Terminal Aerodrome Forecast
Issued by NWS

Home | Current Version | Previous Version | Text Only | Print | Product List | Glossary On
Versions: 1 2 3 4 5 6 7 8 9 10 11 12 13 14 15 16 17 18 19 20 21 22 23 24 25 26 27 28
000
FTUS42 TJSJ 031720
TAFJMZ
TAF
TJMZ 031720Z 0318/0418 27013KT P6SM VCTS SCT022CB BKN035
     FM032300 07006KT P6SM FEW025
     FM040100 08010KT P6SM FEW030 SCT050
     FM041600 15015KT P6SM VCSH FEW030
     AMD NOT SKED=

USA.gov is the U.S. government's official web portal to all federal, state and local government web resources and services.